sensor_id;sensor_type;location;lat;lon;timestamp;P1;durP1;ratioP1;P2;durP2;ratioP2
4698;SDS011;33708;49.466;11.176;2023-07-20T00:02:20;7.00;;;4.47;;
4698;SDS011;33708;49.466;11.176;2023-07-20T00:04:46;5.10;;;3.80;;
4698;SDS011;33708;49.466;11.176;2023-07-20T00:07:11;9.50;;;4.27;;
4698;SDS011;33708;49.466;11.176;2023-07-20T00:09:37;6.50;;;4.40;;
4698;SDS011;33708;49.466;11.176;2023-07-20T00:12:12;7.10;;;4.80;;
4698;SDS011;33708;49.466;11.176;2023-07-20T00:14:43;8.60;;;4.50;;
4698;SDS011;33708;49.466;11.176;2023-07-20T00:17:14;6.80;;;4.33;;
4698;SDS011;33708;49.466;11.176;2023-07-20T00:19:40;7.47;;;4.53;;
4698;SDS011;33708;49.466;11.176;2023-07-20T00:22:09;8.20;;;4.50;;
4698;SDS011;33708;49.466;11.176;2023-07-20T00:24:36;9.33;;;4.63;;
4698;SDS011;33708;49.466;11.176;2023-07-20T00:27:02;6.57;;;4.43;;
4698;SDS011;33708;49.466;11.176;2023-07-20T00:29:38;7.10;;;4.17;;
4698;SDS011;33708;49.466;11.176;2023-07-20T00:32:06;9.27;;;4.47;;
4698;SDS011;33708;49.466;11.176;2023-07-20T00:34:35;9.93;;;4.63;;
4698;SDS011;33708;49.466;11.176;2023-07-20T00:37:01;8.10;;;4.87;;
4698;SDS011;33708;49.466;11.176;2023-07-20T00:39:36;8.20;;;4.57;;
4698;SDS011;33708;49.466;11.176;2023-07-20T00:42:07;7.70;;;5.03;;
4698;SDS011;33708;49.466;11.176;2023-07-20T00:44:36;10.63;;;4.53;;
4698;SDS011;33708;49.466;11.176;2023-07-20T00:47:26;7.63;;;4.13;;
4698;SDS011;33708;49.466;11.176;2023-07-20T00:49:51;7.00;;;4.80;;
4698;SDS011;33708;49.466;11.176;2023-07-20T00:52:18;6.87;;;4.97;;
4698;SDS011;33708;49.466;11.176;2023-07-20T00:54:48;12.90;;;5.13;;
4698;SDS011;33708;49.466;11.176;2023-07-20T00:59:42;10.17;;;4.30;;
4698;SDS011;33708;49.466;11.176;2023-07-20T01:02:08;7.63;;;5.10;;
4698;SDS011;33708;49.466;11.176;2023-07-20T01:04:34;6.50;;;4.50;;
4698;SDS011;33708;49.466;11.176;2023-07-20T01:07:01;8.90;;;4.30;;
4698;SDS011;33708;49.466;11.176;2023-07-20T01:09:50;7.77;;;4.60;;
4698;SDS011;33708;49.466;11.176;2023-07-20T01:12:33;7.20;;;4.40;;
4698;SDS011;33708;49.466;11.176;2023-07-20T01:15:06;9.50;;;4.60;;
4698;SDS011;33708;49.466;11.176;2023-07-20T01:17:33;8.10;;;4.30;;
4698;SDS011;33708;49.466;11.176;2023-07-20T01:19:59;8.53;;;4.97;;
4698;SDS011;33708;49.466;11.176;2023-07-20T01:33:16;6.63;;;4.80;;
4698;SDS011;33708;49.466;11.176;2023-07-20T01:35:45;8.30;;;4.37;;
4698;SDS011;33708;49.466;11.176;2023-07-20T01:38:13;10.23;;;4.67;;
4698;SDS011;33708;49.466;11.176;2023-07-20T01:40:39;7.13;;;4.63;;
4698;SDS011;33708;49.466;11.176;2023-07-20T01:43:05;11.23;;;5.40;;
4698;SDS011;33708;49.466;11.176;2023-07-20T01:45:31;7.93;;;4.73;;
4698;SDS011;33708;49.466;11.176;2023-07-20T01:47:57;14.20;;;4.60;;
4698;SDS011;33708;49.466;11.176;2023-07-20T01:50:22;12.80;;;4.30;;
4698;SDS011;33708;49.466;11.176;2023-07-20T01:52:48;7.97;;;4.47;;
4698;SDS011;33708;49.466;11.176;2023-07-20T01:55:14;5.77;;;4.07;;
4698;SDS011;33708;49.466;11.176;2023-07-20T01:57:39;6.60;;;3.70;;
4698;SDS011;33708;49.466;11.176;2023-07-20T02:00:05;11.20;;;4.00;;
4698;SDS011;33708;49.466;11.176;2023-07-20T02:02:31;7.07;;;3.83;;
4698;SDS011;33708;49.466;11.176;2023-07-20T02:04:57;6.20;;;4.37;;
4698;SDS011;33708;49.466;11.176;2023-07-20T02:07:23;8.03;;;4.60;;
4698;SDS011;33708;49.466;11.176;2023-07-20T02:09:48;7.90;;;5.43;;
4698;SDS011;33708;49.466;11.176;2023-07-20T02:12:14;8.20;;;4.77;;
4698;SDS011;33708;49.466;11.176;2023-07-20T02:14:40;9.50;;;5.40;;
4698;SDS011;33708;49.466;11.176;2023-07-20T02:17:05;6.83;;;4.80;;
4698;SDS011;33708;49.466;11.176;2023-07-20T02:19:31;8.07;;;4.03;;
4698;SDS011;33708;49.466;11.176;2023-07-20T02:21:56;7.10;;;5.07;;
4698;SDS011;33708;49.466;11.176;2023-07-20T02:24:23;7.33;;;4.40;;
4698;SDS011;33708;49.466;11.176;2023-07-20T02:26:50;9.90;;;4.80;;
4698;SDS011;33708;49.466;11.176;2023-07-20T02:29:15;6.67;;;5.17;;
4698;SDS011;33708;49.466;11.176;2023-07-20T02:31:41;6.83;;;4.60;;
4698;SDS011;33708;49.466;11.176;2023-07-20T02:34:07;9.63;;;4.80;;
4698;SDS011;33708;49.466;11.176;2023-07-20T02:36:34;8.57;;;4.60;;
4698;SDS011;33708;49.466;11.176;2023-07-20T02:39:00;5.70;;;4.60;;
4698;SDS011;33708;49.466;11.176;2023-07-20T02:41:28;7.90;;;4.10;;
4698;SDS011;33708;49.466;11.176;2023-07-20T02:43:55;6.23;;;4.27;;
4698;SDS011;33708;49.466;11.176;2023-07-20T02:46:21;7.33;;;4.50;;
4698;SDS011;33708;49.466;11.176;2023-07-20T02:48:47;7.97;;;4.50;;
4698;SDS011;33708;49.466;11.176;2023-07-20T02:51:13;10.23;;;4.30;;
4698;SDS011;33708;49.466;11.176;2023-07-20T02:53:38;9.97;;;4.87;;
4698;SDS011;33708;49.466;11.176;2023-07-20T02:56:04;9.63;;;4.43;;
4698;SDS011;33708;49.466;11.176;2023-07-20T02:58:30;8.63;;;4.60;;
4698;SDS011;33708;49.466;11.176;2023-07-20T03:00:55;6.40;;;4.17;;
4698;SDS011;33708;49.466;11.176;2023-07-20T03:03:21;7.67;;;4.40;;
4698;SDS011;33708;49.466;11.176;2023-07-20T03:05:47;7.30;;;4.57;;
4698;SDS011;33708;49.466;11.176;2023-07-20T03:08:19;6.17;;;4.33;;
4698;SDS011;33708;49.466;11.176;2023-07-20T03:10:45;7.90;;;4.93;;
4698;SDS011;33708;49.466;11.176;2023-07-20T03:13:10;11.13;;;5.50;;
4698;SDS011;33708;49.466;11.176;2023-07-20T03:15:36;11.53;;;5.20;;
4698;SDS011;33708;49.466;11.176;2023-07-20T03:18:01;12.03;;;4.87;;
4698;SDS011;33708;49.466;11.176;2023-07-20T03:20:29;9.10;;;4.83;;
4698;SDS011;33708;49.466;11.176;2023-07-20T03:22:54;8.17;;;4.40;;
4698;SDS011;33708;49.466;11.176;2023-07-20T03:25:20;6.47;;;4.67;;
4698;SDS011;33708;49.466;11.176;2023-07-20T03:27:46;8.00;;;4.80;;
4698;SDS011;33708;49.466;11.176;2023-07-20T03:30:11;8.80;;;4.77;;
4698;SDS011;33708;49.466;11.176;2023-07-20T03:32:37;7.20;;;4.73;;
4698;SDS011;33708;49.466;11.176;2023-07-20T03:35:03;8.40;;;4.80;;
4698;SDS011;33708;49.466;11.176;2023-07-20T03:37:29;8.10;;;4.70;;
4698;SDS011;33708;49.466;11.176;2023-07-20T03:39:55;8.57;;;4.50;;
4698;SDS011;33708;49.466;11.176;2023-07-20T03:42:20;8.20;;;4.27;;
4698;SDS011;33708;49.466;11.176;2023-07-20T03:44:46;6.60;;;4.13;;
4698;SDS011;33708;49.466;11.176;2023-07-20T03:47:11;7.00;;;4.63;;
4698;SDS011;33708;49.466;11.176;2023-07-20T03:49:37;7.80;;;4.10;;
4698;SDS011;33708;49.466;11.176;2023-07-20T03:52:03;7.30;;;4.47;;
4698;SDS011;33708;49.466;11.176;2023-07-20T03:54:29;8.77;;;4.87;;
4698;SDS011;33708;49.466;11.176;2023-07-20T03:56:55;10.50;;;4.87;;
4698;SDS011;33708;49.466;11.176;2023-07-20T03:59:20;9.00;;;4.50;;
4698;SDS011;33708;49.466;11.176;2023-07-20T04:01:46;8.00;;;4.57;;
4698;SDS011;33708;49.466;11.176;2023-07-20T04:04:11;13.00;;;4.40;;
4698;SDS011;33708;49.466;11.176;2023-07-20T04:06:38;7.20;;;4.10;;
4698;SDS011;33708;49.466;11.176;2023-07-20T04:09:04;8.33;;;4.40;;
4698;SDS011;33708;49.466;11.176;2023-07-20T04:11:32;8.77;;;5.33;;
4698;SDS011;33708;49.466;11.176;2023-07-20T04:13:58;12.70;;;4.27;;
4698;SDS011;33708;49.466;11.176;2023-07-20T04:16:23;12.57;;;4.90;;
4698;SDS011;33708;49.466;11.176;2023-07-20T04:18:49;8.00;;;4.50;;
4698;SDS011;33708;49.466;11.176;2023-07-20T04:21:15;9.07;;;4.70;;
4698;SDS011;33708;49.466;11.176;2023-07-20T04:23:40;8.10;;;4.97;;
4698;SDS011;33708;49.466;11.176;2023-07-20T04:26:06;8.00;;;4.23;;
4698;SDS011;33708;49.466;11.176;2023-07-20T04:28:32;9.07;;;5.70;;
4698;SDS011;33708;49.466;11.176;2023-07-20T04:31:11;7.70;;;4.57;;
4698;SDS011;33708;49.466;11.176;2023-07-20T04:33:38;15.47;;;4.00;;
4698;SDS011;33708;49.466;11.176;2023-07-20T04:36:04;7.70;;;4.60;;
4698;SDS011;33708;49.466;11.176;2023-07-20T04:38:30;9.83;;;5.73;;
4698;SDS011;33708;49.466;11.176;2023-07-20T04:40:56;12.33;;;4.77;;
4698;SDS011;33708;49.466;11.176;2023-07-20T04:43:21;8.63;;;5.07;;
4698;SDS011;33708;49.466;11.176;2023-07-20T04:45:47;18.33;;;6.50;;
4698;SDS011;33708;49.466;11.176;2023-07-20T04:48:13;11.13;;;5.50;;
4698;SDS011;33708;49.466;11.176;2023-07-20T04:50:44;18.10;;;5.80;;
4698;SDS011;33708;49.466;11.176;2023-07-20T04:53:11;6.50;;;4.50;;
4698;SDS011;33708;49.466;11.176;2023-07-20T04:55:37;10.10;;;4.97;;
4698;SDS011;33708;49.466;11.176;2023-07-20T04:58:04;12.03;;;4.87;;
4698;SDS011;33708;49.466;11.176;2023-07-20T05:00:30;12.13;;;4.97;;
4698;SDS011;33708;49.466;11.176;2023-07-20T05:02:57;11.47;;;4.30;;
4698;SDS011;33708;49.466;11.176;2023-07-20T05:05:22;16.70;;;4.37;;
4698;SDS011;33708;49.466;11.176;2023-07-20T05:07:48;10.03;;;4.13;;
4698;SDS011;33708;49.466;11.176;2023-07-20T05:10:14;9.20;;;4.17;;
4698;SDS011;33708;49.466;11.176;2023-07-20T05:12:39;9.57;;;3.90;;
4698;SDS011;33708;49.466;11.176;2023-07-20T05:15:05;7.23;;;3.73;;
4698;SDS011;33708;49.466;11.176;2023-07-20T05:17:31;7.90;;;3.83;;
4698;SDS011;33708;49.466;11.176;2023-07-20T05:19:57;8.33;;;4.10;;
4698;SDS011;33708;49.466;11.176;2023-07-20T05:22:22;10.50;;;4.50;;
4698;SDS011;33708;49.466;11.176;2023-07-20T05:24:49;10.00;;;4.20;;
4698;SDS011;33708;49.466;11.176;2023-07-20T05:27:15;16.70;;;4.47;;
4698;SDS011;33708;49.466;11.176;2023-07-20T05:29:44;9.23;;;4.00;;
4698;SDS011;33708;49.466;11.176;2023-07-20T05:32:10;11.43;;;4.23;;
4698;SDS011;33708;49.466;11.176;2023-07-20T05:34:36;15.93;;;3.60;;
4698;SDS011;33708;49.466;11.176;2023-07-20T05:37:02;10.63;;;4.00;;
4698;SDS011;33708;49.466;11.176;2023-07-20T05:39:27;8.17;;;4.30;;
4698;SDS011;33708;49.466;11.176;2023-07-20T05:41:53;9.10;;;4.20;;
4698;SDS011;33708;49.466;11.176;2023-07-20T05:44:19;9.13;;;3.80;;
4698;SDS011;33708;49.466;11.176;2023-07-20T05:46:44;13.10;;;4.43;;
4698;SDS011;33708;49.466;11.176;2023-07-20T05:49:10;16.83;;;4.50;;
4698;SDS011;33708;49.466;11.176;2023-07-20T05:51:35;8.33;;;4.20;;
4698;SDS011;33708;49.466;11.176;2023-07-20T05:54:01;11.20;;;4.03;;
4698;SDS011;33708;49.466;11.176;2023-07-20T05:56:27;5.90;;;3.50;;
4698;SDS011;33708;49.466;11.176;2023-07-20T05:58:52;11.10;;;4.70;;
4698;SDS011;33708;49.466;11.176;2023-07-20T06:01:18;10.33;;;4.00;;
4698;SDS011;33708;49.466;11.176;2023-07-20T06:03:44;15.30;;;4.67;;
4698;SDS011;33708;49.466;11.176;2023-07-20T06:06:09;11.77;;;4.17;;
4698;SDS011;33708;49.466;11.176;2023-07-20T06:08:37;9.37;;;4.60;;
4698;SDS011;33708;49.466;11.176;2023-07-20T06:11:03;10.97;;;4.27;;
4698;SDS011;33708;49.466;11.176;2023-07-20T06:13:28;10.47;;;3.20;;
4698;SDS011;33708;49.466;11.176;2023-07-20T06:15:54;14.10;;;4.00;;
4698;SDS011;33708;49.466;11.176;2023-07-20T06:18:21;9.80;;;4.10;;
4698;SDS011;33708;49.466;11.176;2023-07-20T06:20:50;10.33;;;3.50;;
4698;SDS011;33708;49.466;11.176;2023-07-20T06:23:16;13.97;;;3.80;;
4698;SDS011;33708;49.466;11.176;2023-07-20T06:25:43;9.23;;;3.63;;
4698;SDS011;33708;49.466;11.176;2023-07-20T06:28:09;10.70;;;4.00;;
4698;SDS011;33708;49.466;11.176;2023-07-20T06:30:34;8.10;;;3.80;;
4698;SDS011;33708;49.466;11.176;2023-07-20T06:33:00;10.03;;;3.77;;
4698;SDS011;33708;49.466;11.176;2023-07-20T06:35:25;10.77;;;3.80;;
4698;SDS011;33708;49.466;11.176;2023-07-20T06:37:51;9.53;;;3.60;;
4698;SDS011;33708;49.466;11.176;2023-07-20T06:40:17;16.67;;;3.67;;
4698;SDS011;33708;49.466;11.176;2023-07-20T06:42:43;19.43;;;3.47;;
4698;SDS011;33708;49.466;11.176;2023-07-20T06:45:09;8.13;;;3.77;;
4698;SDS011;33708;49.466;11.176;2023-07-20T06:47:37;9.77;;;3.97;;
4698;SDS011;33708;49.466;11.176;2023-07-20T06:50:03;12.23;;;3.83;;
4698;SDS011;33708;49.466;11.176;2023-07-20T06:52:29;5.80;;;3.43;;
4698;SDS011;33708;49.466;11.176;2023-07-20T06:54:55;7.20;;;3.97;;
4698;SDS011;33708;49.466;11.176;2023-07-20T06:57:20;10.10;;;4.30;;
4698;SDS011;33708;49.466;11.176;2023-07-20T06:59:46;9.57;;;3.90;;
4698;SDS011;33708;49.466;11.176;2023-07-20T07:02:12;9.63;;;3.73;;
4698;SDS011;33708;49.466;11.176;2023-07-20T07:04:38;7.37;;;3.47;;
4698;SDS011;33708;49.466;11.176;2023-07-20T07:07:03;9.00;;;3.70;;
4698;SDS011;33708;49.466;11.176;2023-07-20T07:09:29;15.73;;;4.00;;
4698;SDS011;33708;49.466;11.176;2023-07-20T07:11:55;10.17;;;3.70;;
4698;SDS011;33708;49.466;11.176;2023-07-20T07:14:20;9.90;;;3.97;;
4698;SDS011;33708;49.466;11.176;2023-07-20T07:16:46;7.17;;;3.10;;
4698;SDS011;33708;49.466;11.176;2023-07-20T07:19:13;8.47;;;4.07;;
4698;SDS011;33708;49.466;11.176;2023-07-20T07:21:38;7.50;;;3.33;;
4698;SDS011;33708;49.466;11.176;2023-07-20T07:24:04;10.03;;;3.80;;
4698;SDS011;33708;49.466;11.176;2023-07-20T07:26:32;7.33;;;3.40;;
4698;SDS011;33708;49.466;11.176;2023-07-20T07:28:58;7.13;;;3.47;;
4698;SDS011;33708;49.466;11.176;2023-07-20T07:31:24;8.30;;;3.37;;
4698;SDS011;33708;49.466;11.176;2023-07-20T07:33:50;9.77;;;3.43;;
4698;SDS011;33708;49.466;11.176;2023-07-20T07:36:16;6.80;;;3.50;;
4698;SDS011;33708;49.466;11.176;2023-07-20T07:38:41;8.10;;;2.90;;
4698;SDS011;33708;49.466;11.176;2023-07-20T07:41:08;12.60;;;3.37;;
4698;SDS011;33708;49.466;11.176;2023-07-20T07:43:33;7.60;;;2.50;;
4698;SDS011;33708;49.466;11.176;2023-07-20T07:46:00;7.43;;;3.00;;
4698;SDS011;33708;49.466;11.176;2023-07-20T07:48:25;12.53;;;4.00;;
4698;SDS011;33708;49.466;11.176;2023-07-20T07:50:53;11.23;;;3.33;;
4698;SDS011;33708;49.466;11.176;2023-07-20T07:53:19;7.93;;;2.80;;
4698;SDS011;33708;49.466;11.176;2023-07-20T07:55:45;7.13;;;2.40;;
4698;SDS011;33708;49.466;11.176;2023-07-20T07:58:12;5.27;;;2.40;;
4698;SDS011;33708;49.466;11.176;2023-07-20T08:00:38;7.20;;;2.73;;
4698;SDS011;33708;49.466;11.176;2023-07-20T08:03:05;6.53;;;2.87;;
4698;SDS011;33708;49.466;11.176;2023-07-20T08:05:31;8.50;;;2.87;;
4698;SDS011;33708;49.466;11.176;2023-07-20T08:07:58;4.70;;;2.10;;
4698;SDS011;33708;49.466;11.176;2023-07-20T08:10:23;4.77;;;2.50;;
4698;SDS011;33708;49.466;11.176;2023-07-20T08:12:49;11.23;;;2.43;;
4698;SDS011;33708;49.466;11.176;2023-07-20T08:15:14;6.97;;;2.67;;
4698;SDS011;33708;49.466;11.176;2023-07-20T08:17:41;8.47;;;2.90;;
4698;SDS011;33708;49.466;11.176;2023-07-20T08:20:08;6.07;;;2.27;;
4698;SDS011;33708;49.466;11.176;2023-07-20T08:22:37;7.53;;;2.53;;
4698;SDS011;33708;49.466;11.176;2023-07-20T08:25:03;6.83;;;2.33;;
4698;SDS011;33708;49.466;11.176;2023-07-20T08:27:29;5.57;;;2.77;;
4698;SDS011;33708;49.466;11.176;2023-07-20T08:29:54;5.07;;;2.20;;
4698;SDS011;33708;49.466;11.176;2023-07-20T08:32:20;6.57;;;2.80;;
4698;SDS011;33708;49.466;11.176;2023-07-20T08:34:45;4.27;;;2.10;;
4698;SDS011;33708;49.466;11.176;2023-07-20T08:37:11;5.93;;;2.27;;
4698;SDS011;33708;49.466;11.176;2023-07-20T08:39:37;7.00;;;2.90;;
4698;SDS011;33708;49.466;11.176;2023-07-20T08:42:02;8.50;;;2.40;;
4698;SDS011;33708;49.466;11.176;2023-07-20T08:44:34;6.60;;;2.97;;
4698;SDS011;33708;49.466;11.176;2023-07-20T08:47:02;5.50;;;2.50;;
4698;SDS011;33708;49.466;11.176;2023-07-20T08:49:29;5.90;;;2.33;;
4698;SDS011;33708;49.466;11.176;2023-07-20T08:51:58;7.37;;;2.67;;
4698;SDS011;33708;49.466;11.176;2023-07-20T08:54:26;6.93;;;2.53;;
4698;SDS011;33708;49.466;11.176;2023-07-20T08:56:54;7.90;;;2.73;;
4698;SDS011;33708;49.466;11.176;2023-07-20T08:59:22;8.47;;;2.13;;
4698;SDS011;33708;49.466;11.176;2023-07-20T09:01:49;6.43;;;2.20;;
4698;SDS011;33708;49.466;11.176;2023-07-20T09:04:17;8.83;;;2.33;;
4698;SDS011;33708;49.466;11.176;2023-07-20T09:06:43;7.00;;;2.47;;
4698;SDS011;33708;49.466;11.176;2023-07-20T09:09:08;6.83;;;2.10;;
4698;SDS011;33708;49.466;11.176;2023-07-20T09:11:34;6.47;;;2.30;;
4698;SDS011;33708;49.466;11.176;2023-07-20T09:14:03;7.57;;;2.40;;
4698;SDS011;33708;49.466;11.176;2023-07-20T09:16:32;7.23;;;2.20;;
4698;SDS011;33708;49.466;11.176;2023-07-20T09:19:12;7.37;;;2.10;;
4698;SDS011;33708;49.466;11.176;2023-07-20T09:21:39;7.50;;;2.77;;
4698;SDS011;33708;49.466;11.176;2023-07-20T09:24:05;5.20;;;2.10;;
4698;SDS011;33708;49.466;11.176;2023-07-20T09:26:32;11.27;;;2.80;;
4698;SDS011;33708;49.466;11.176;2023-07-20T09:29:07;5.87;;;2.13;;
4698;SDS011;33708;49.466;11.176;2023-07-20T09:31:34;6.07;;;2.03;;
4698;SDS011;33708;49.466;11.176;2023-07-20T09:34:00;5.53;;;2.20;;
4698;SDS011;33708;49.466;11.176;2023-07-20T09:36:28;4.70;;;2.00;;
4698;SDS011;33708;49.466;11.176;2023-07-20T09:38:54;6.10;;;1.97;;
4698;SDS011;33708;49.466;11.176;2023-07-20T09:41:20;4.43;;;1.77;;
4698;SDS011;33708;49.466;11.176;2023-07-20T09:43:46;4.83;;;1.90;;
4698;SDS011;33708;49.466;11.176;2023-07-20T09:46:12;11.30;;;1.77;;
4698;SDS011;33708;49.466;11.176;2023-07-20T09:48:38;4.33;;;1.90;;
4698;SDS011;33708;49.466;11.176;2023-07-20T09:51:04;4.03;;;1.70;;
4698;SDS011;33708;49.466;11.176;2023-07-20T09:53:32;4.83;;;1.50;;
4698;SDS011;33708;49.466;11.176;2023-07-20T09:55:59;3.50;;;1.90;;
4698;SDS011;33708;49.466;11.176;2023-07-20T09:58:27;5.30;;;2.00;;
4698;SDS011;33708;49.466;11.176;2023-07-20T10:00:57;4.50;;;2.00;;
4698;SDS011;33708;49.466;11.176;2023-07-20T10:03:29;7.00;;;1.53;;
4698;SDS011;33708;49.466;11.176;2023-07-20T10:06:29;5.27;;;1.57;;
4698;SDS011;33708;49.466;11.176;2023-07-20T10:08:49;15.30;;;1.50;;
4698;SDS011;33708;49.466;11.176;2023-07-20T10:11:18;4.77;;;1.50;;
4698;SDS011;33708;49.466;11.176;2023-07-20T10:13:46;4.50;;;1.77;;
4698;SDS011;33708;49.466;11.176;2023-07-20T10:16:21;5.33;;;2.13;;
4698;SDS011;33708;49.466;11.176;2023-07-20T10:21:47;4.50;;;1.90;;
4698;SDS011;33708;49.466;11.176;2023-07-20T10:24:16;11.83;;;1.40;;
4698;SDS011;33708;49.466;11.176;2023-07-20T10:26:43;4.70;;;1.17;;
4698;SDS011;33708;49.466;11.176;2023-07-20T10:29:09;5.60;;;1.43;;
4698;SDS011;33708;49.466;11.176;2023-07-20T10:31:35;4.77;;;1.30;;
4698;SDS011;33708;49.466;11.176;2023-07-20T10:34:02;2.97;;;1.30;;
4698;SDS011;33708;49.466;11.176;2023-07-20T10:36:28;6.63;;;1.03;;
4698;SDS011;33708;49.466;11.176;2023-07-20T10:38:54;4.57;;;1.67;;
4698;SDS011;33708;49.466;11.176;2023-07-20T10:41:57;3.50;;;1.20;;
4698;SDS011;33708;49.466;11.176;2023-07-20T10:44:14;3.63;;;1.40;;
4698;SDS011;33708;49.466;11.176;2023-07-20T10:46:45;3.33;;;1.63;;
4698;SDS011;33708;49.466;11.176;2023-07-20T10:49:12;3.10;;;1.50;;
4698;SDS011;33708;49.466;11.176;2023-07-20T10:51:43;3.30;;;1.70;;
4698;SDS011;33708;49.466;11.176;2023-07-20T10:56:41;3.60;;;1.30;;
4698;SDS011;33708;49.466;11.176;2023-07-20T10:59:17;5.73;;;1.53;;
4698;SDS011;33708;49.466;11.176;2023-07-20T11:01:47;5.53;;;1.33;;
4698;SDS011;33708;49.466;11.176;2023-07-20T11:04:14;3.97;;;1.70;;
4698;SDS011;33708;49.466;11.176;2023-07-20T11:06:44;3.40;;;1.40;;
4698;SDS011;33708;49.466;11.176;2023-07-20T11:09:12;4.80;;;1.43;;
4698;SDS011;33708;49.466;11.176;2023-07-20T11:11:43;7.20;;;1.90;;
4698;SDS011;33708;49.466;11.176;2023-07-20T11:14:22;6.40;;;1.40;;
4698;SDS011;33708;49.466;11.176;2023-07-20T11:16:49;3.40;;;1.33;;
4698;SDS011;33708;49.466;11.176;2023-07-20T11:19:20;3.77;;;1.40;;
4698;SDS011;33708;49.466;11.176;2023-07-20T11:21:46;3.00;;;1.60;;
4698;SDS011;33708;49.466;11.176;2023-07-20T11:24:15;3.00;;;1.33;;
4698;SDS011;33708;49.466;11.176;2023-07-20T11:26:44;3.30;;;1.30;;
4698;SDS011;33708;49.466;11.176;2023-07-20T11:29:18;2.53;;;1.30;;
4698;SDS011;33708;49.466;11.176;2023-07-20T11:31:45;2.50;;;1.10;;
4698;SDS011;33708;49.466;11.176;2023-07-20T11:34:18;4.43;;;1.80;;
4698;SDS011;33708;49.466;11.176;2023-07-20T11:36:46;4.90;;;1.60;;
4698;SDS011;33708;49.466;11.176;2023-07-20T11:39:19;9.83;;;1.30;;
4698;SDS011;33708;49.466;11.176;2023-07-20T11:41:47;2.70;;;1.03;;
4698;SDS011;33708;49.466;11.176;2023-07-20T11:44:17;5.30;;;1.30;;
4698;SDS011;33708;49.466;11.176;2023-07-20T11:47:02;2.90;;;1.10;;
4698;SDS011;33708;49.466;11.176;2023-07-20T11:49:36;3.23;;;1.37;;
4698;SDS011;33708;49.466;11.176;2023-07-20T11:52:03;9.67;;;1.50;;
4698;SDS011;33708;49.466;11.176;2023-07-20T11:54:41;2.70;;;1.30;;
4698;SDS011;33708;49.466;11.176;2023-07-20T11:57:15;3.97;;;1.70;;
4698;SDS011;33708;49.466;11.176;2023-07-20T11:59:52;2.83;;;1.30;;
4698;SDS011;33708;49.466;11.176;2023-07-20T12:02:23;3.30;;;1.50;;
4698;SDS011;33708;49.466;11.176;2023-07-20T12:04:50;8.93;;;1.70;;
4698;SDS011;33708;49.466;11.176;2023-07-20T12:07:18;4.17;;;1.47;;
4698;SDS011;33708;49.466;11.176;2023-07-20T12:09:44;2.83;;;1.30;;
4698;SDS011;33708;49.466;11.176;2023-07-20T12:12:10;4.30;;;1.67;;
4698;SDS011;33708;49.466;11.176;2023-07-20T12:14:37;3.13;;;1.47;;
4698;SDS011;33708;49.466;11.176;2023-07-20T12:17:02;3.40;;;1.30;;
4698;SDS011;33708;49.466;11.176;2023-07-20T12:19:28;3.47;;;1.57;;
4698;SDS011;33708;49.466;11.176;2023-07-20T12:21:57;3.27;;;1.60;;
4698;SDS011;33708;49.466;11.176;2023-07-20T12:24:26;4.53;;;1.50;;
4698;SDS011;33708;49.466;11.176;2023-07-20T12:26:55;2.80;;;1.53;;
4698;SDS011;33708;49.466;11.176;2023-07-20T12:29:23;6.23;;;1.27;;
4698;SDS011;33708;49.466;11.176;2023-07-20T12:31:48;2.73;;;1.20;;
4698;SDS011;33708;49.466;11.176;2023-07-20T12:34:14;3.60;;;1.33;;
4698;SDS011;33708;49.466;11.176;2023-07-20T12:36:40;2.80;;;1.00;;
4698;SDS011;33708;49.466;11.176;2023-07-20T12:39:05;3.90;;;1.00;;
4698;SDS011;33708;49.466;11.176;2023-07-20T12:41:31;2.10;;;0.97;;
4698;SDS011;33708;49.466;11.176;2023-07-20T12:43:56;10.50;;;1.60;;
4698;SDS011;33708;49.466;11.176;2023-07-20T12:46:23;4.90;;;1.70;;
4698;SDS011;33708;49.466;11.176;2023-07-20T12:48:49;2.50;;;1.23;;
4698;SDS011;33708;49.466;11.176;2023-07-20T12:51:15;5.30;;;1.80;;
4698;SDS011;33708;49.466;11.176;2023-07-20T12:53:40;3.80;;;1.60;;
4698;SDS011;33708;49.466;11.176;2023-07-20T12:56:06;4.93;;;1.20;;
4698;SDS011;33708;49.466;11.176;2023-07-20T12:58:32;3.07;;;1.30;;
4698;SDS011;33708;49.466;11.176;2023-07-20T13:00:57;2.10;;;1.10;;
4698;SDS011;33708;49.466;11.176;2023-07-20T13:03:23;4.00;;;1.10;;
4698;SDS011;33708;49.466;11.176;2023-07-20T13:05:49;4.30;;;1.50;;
4698;SDS011;33708;49.466;11.176;2023-07-20T13:08:15;5.33;;;1.80;;
4698;SDS011;33708;49.466;11.176;2023-07-20T13:10:41;5.50;;;1.47;;
4698;SDS011;33708;49.466;11.176;2023-07-20T13:13:08;8.90;;;1.53;;
4698;SDS011;33708;49.466;11.176;2023-07-20T13:15:40;4.43;;;1.60;;
4698;SDS011;33708;49.466;11.176;2023-07-20T13:18:09;12.47;;;2.40;;
4698;SDS011;33708;49.466;11.176;2023-07-20T13:20:35;5.57;;;1.40;;
4698;SDS011;33708;49.466;11.176;2023-07-20T13:23:01;5.47;;;1.40;;
4698;SDS011;33708;49.466;11.176;2023-07-20T13:25:26;2.97;;;1.50;;
4698;SDS011;33708;49.466;11.176;2023-07-20T13:27:53;2.90;;;1.30;;
4698;SDS011;33708;49.466;11.176;2023-07-20T13:30:18;3.47;;;1.60;;
4698;SDS011;33708;49.466;11.176;2023-07-20T13:32:46;3.30;;;1.57;;
4698;SDS011;33708;49.466;11.176;2023-07-20T13:35:12;3.47;;;1.20;;
4698;SDS011;33708;49.466;11.176;2023-07-20T13:37:37;16.10;;;1.67;;
4698;SDS011;33708;49.466;11.176;2023-07-20T13:40:03;5.87;;;1.80;;
4698;SDS011;33708;49.466;11.176;2023-07-20T13:42:36;2.80;;;1.50;;
4698;SDS011;33708;49.466;11.176;2023-07-20T13:45:02;4.23;;;1.70;;
4698;SDS011;33708;49.466;11.176;2023-07-20T13:47:28;4.30;;;1.60;;
4698;SDS011;33708;49.466;11.176;2023-07-20T13:49:54;3.67;;;1.40;;
4698;SDS011;33708;49.466;11.176;2023-07-20T13:52:20;2.63;;;1.40;;
4698;SDS011;33708;49.466;11.176;2023-07-20T13:54:46;5.60;;;1.30;;
4698;SDS011;33708;49.466;11.176;2023-07-20T13:57:12;3.73;;;1.60;;
4698;SDS011;33708;49.466;11.176;2023-07-20T13:59:38;5.37;;;1.73;;
4698;SDS011;33708;49.466;11.176;2023-07-20T14:02:03;4.77;;;1.57;;
4698;SDS011;33708;49.466;11.176;2023-07-20T14:04:29;3.00;;;1.53;;
4698;SDS011;33708;49.466;11.176;2023-07-20T14:06:55;5.60;;;1.17;;
4698;SDS011;33708;49.466;11.176;2023-07-20T14:09:20;3.50;;;1.63;;
4698;SDS011;33708;49.466;11.176;2023-07-20T14:11:46;7.07;;;2.07;;
4698;SDS011;33708;49.466;11.176;2023-07-20T14:14:12;3.40;;;1.37;;
4698;SDS011;33708;49.466;11.176;2023-07-20T14:16:37;7.80;;;1.60;;
4698;SDS011;33708;49.466;11.176;2023-07-20T14:19:03;4.37;;;1.60;;
4698;SDS011;33708;49.466;11.176;2023-07-20T14:21:30;3.73;;;1.60;;
4698;SDS011;33708;49.466;11.176;2023-07-20T14:23:56;3.13;;;1.60;;
4698;SDS011;33708;49.466;11.176;2023-07-20T14:26:22;3.30;;;1.80;;
4698;SDS011;33708;49.466;11.176;2023-07-20T14:28:48;4.70;;;1.63;;
4698;SDS011;33708;49.466;11.176;2023-07-20T14:31:14;4.53;;;1.17;;
4698;SDS011;33708;49.466;11.176;2023-07-20T14:33:39;3.80;;;1.33;;
4698;SDS011;33708;49.466;11.176;2023-07-20T14:36:05;10.80;;;1.43;;
4698;SDS011;33708;49.466;11.176;2023-07-20T14:38:31;3.23;;;1.30;;
4698;SDS011;33708;49.466;11.176;2023-07-20T14:40:58;3.70;;;1.57;;
4698;SDS011;33708;49.466;11.176;2023-07-20T14:43:24;6.87;;;2.13;;
4698;SDS011;33708;49.466;11.176;2023-07-20T14:45:49;9.23;;;1.90;;
4698;SDS011;33708;49.466;11.176;2023-07-20T14:48:15;2.90;;;1.63;;
4698;SDS011;33708;49.466;11.176;2023-07-20T14:50:41;3.37;;;1.40;;
4698;SDS011;33708;49.466;11.176;2023-07-20T14:53:07;4.30;;;1.50;;
4698;SDS011;33708;49.466;11.176;2023-07-20T14:55:33;3.37;;;1.47;;
4698;SDS011;33708;49.466;11.176;2023-07-20T14:57:58;3.23;;;1.60;;
4698;SDS011;33708;49.466;11.176;2023-07-20T15:00:24;3.67;;;1.80;;
4698;SDS011;33708;49.466;11.176;2023-07-20T15:02:50;2.73;;;1.33;;
4698;SDS011;33708;49.466;11.176;2023-07-20T15:05:21;4.00;;;1.60;;